sensor_id;sensor_type;location;lat;lon;timestamp;P1;durP1;ratioP1;P2;durP2;ratioP2
982;SDS011;480;48.124;11.578;2023-07-29T00:00:49;3.60;;;3.30;;
982;SDS011;480;48.124;11.578;2023-07-29T00:03:16;2.77;;;2.57;;
982;SDS011;480;48.124;11.578;2023-07-29T00:05:44;3.70;;;2.90;;
982;SDS011;480;48.124;11.578;2023-07-29T00:08:11;3.00;;;2.80;;
982;SDS011;480;48.124;11.578;2023-07-29T00:10:38;4.00;;;2.80;;
982;SDS011;480;48.124;11.578;2023-07-29T00:13:07;3.43;;;3.10;;
982;SDS011;480;48.124;11.578;2023-07-29T00:15:34;3.77;;;2.80;;
982;SDS011;480;48.124;11.578;2023-07-29T00:18:01;3.87;;;2.50;;
982;SDS011;480;48.124;11.578;2023-07-29T00:20:28;3.07;;;2.77;;
982;SDS011;480;48.124;11.578;2023-07-29T00:22:57;3.60;;;3.07;;
982;SDS011;480;48.124;11.578;2023-07-29T00:25:24;3.37;;;3.07;;
982;SDS011;480;48.124;11.578;2023-07-29T00:27:51;3.20;;;2.53;;
982;SDS011;480;48.124;11.578;2023-07-29T00:30:18;2.93;;;2.27;;
982;SDS011;480;48.124;11.578;2023-07-29T00:32:46;2.77;;;2.57;;
982;SDS011;480;48.124;11.578;2023-07-29T00:35:13;3.37;;;3.07;;
982;SDS011;480;48.124;11.578;2023-07-29T00:37:41;2.97;;;2.50;;
982;SDS011;480;48.124;11.578;2023-07-29T00:40:12;2.57;;;2.37;;
982;SDS011;480;48.124;11.578;2023-07-29T00:42:42;2.70;;;2.50;;
982;SDS011;480;48.124;11.578;2023-07-29T00:45:09;2.77;;;2.57;;
982;SDS011;480;48.124;11.578;2023-07-29T00:47:37;3.63;;;3.23;;
982;SDS011;480;48.124;11.578;2023-07-29T00:50:05;3.03;;;2.57;;
982;SDS011;480;48.124;11.578;2023-07-29T00:52:33;2.37;;;2.10;;
982;SDS011;480;48.124;11.578;2023-07-29T00:55:00;4.87;;;3.13;;
982;SDS011;480;48.124;11.578;2023-07-29T00:57:29;3.00;;;2.37;;
982;SDS011;480;48.124;11.578;2023-07-29T00:59:58;3.13;;;2.83;;
982;SDS011;480;48.124;11.578;2023-07-29T01:02:25;2.70;;;2.50;;
982;SDS011;480;48.124;11.578;2023-07-29T01:04:55;3.00;;;2.73;;
982;SDS011;480;48.124;11.578;2023-07-29T01:07:26;2.37;;;2.17;;
982;SDS011;480;48.124;11.578;2023-07-29T01:10:00;4.10;;;3.80;;
982;SDS011;480;48.124;11.578;2023-07-29T01:12:35;3.00;;;2.80;;
982;SDS011;480;48.124;11.578;2023-07-29T01:15:09;2.70;;;2.50;;
982;SDS011;480;48.124;11.578;2023-07-29T01:17:42;2.83;;;2.57;;
982;SDS011;480;48.124;11.578;2023-07-29T01:20:13;2.57;;;2.33;;
982;SDS011;480;48.124;11.578;2023-07-29T01:22:42;2.50;;;2.00;;
982;SDS011;480;48.124;11.578;2023-07-29T01:25:11;2.50;;;2.20;;
982;SDS011;480;48.124;11.578;2023-07-29T01:27:38;2.97;;;2.73;;
982;SDS011;480;48.124;11.578;2023-07-29T01:30:07;2.50;;;2.30;;
982;SDS011;480;48.124;11.578;2023-07-29T01:32:36;2.60;;;2.40;;
982;SDS011;480;48.124;11.578;2023-07-29T01:35:09;3.20;;;2.40;;
982;SDS011;480;48.124;11.578;2023-07-29T01:37:41;3.10;;;2.23;;
982;SDS011;480;48.124;11.578;2023-07-29T01:40:15;3.10;;;2.20;;
982;SDS011;480;48.124;11.578;2023-07-29T01:42:44;3.37;;;2.73;;
982;SDS011;480;48.124;11.578;2023-07-29T01:45:13;2.70;;;2.30;;
982;SDS011;480;48.124;11.578;2023-07-29T01:47:41;5.70;;;2.07;;
982;SDS011;480;48.124;11.578;2023-07-29T01:50:09;2.20;;;2.00;;
982;SDS011;480;48.124;11.578;2023-07-29T01:52:36;1.90;;;1.80;;
982;SDS011;480;48.124;11.578;2023-07-29T01:55:04;2.47;;;2.27;;
982;SDS011;480;48.124;11.578;2023-07-29T01:57:33;3.47;;;2.20;;
982;SDS011;480;48.124;11.578;2023-07-29T02:00:00;2.90;;;2.40;;
982;SDS011;480;48.124;11.578;2023-07-29T02:02:28;1.90;;;1.80;;
982;SDS011;480;48.124;11.578;2023-07-29T02:04:55;1.83;;;1.73;;
982;SDS011;480;48.124;11.578;2023-07-29T02:07:22;2.10;;;1.93;;
982;SDS011;480;48.124;11.578;2023-07-29T02:09:51;2.70;;;2.50;;
982;SDS011;480;48.124;11.578;2023-07-29T02:12:19;2.53;;;2.40;;
982;SDS011;480;48.124;11.578;2023-07-29T02:14:47;3.00;;;2.50;;
982;SDS011;480;48.124;11.578;2023-07-29T02:17:14;2.80;;;2.60;;
982;SDS011;480;48.124;11.578;2023-07-29T02:19:41;2.37;;;2.13;;
982;SDS011;480;48.124;11.578;2023-07-29T02:24:37;3.30;;;1.90;;
982;SDS011;480;48.124;11.578;2023-07-29T02:27:04;2.63;;;2.43;;
982;SDS011;480;48.124;11.578;2023-07-29T02:29:32;2.57;;;2.20;;
982;SDS011;480;48.124;11.578;2023-07-29T02:32:00;2.50;;;2.00;;
982;SDS011;480;48.124;11.578;2023-07-29T02:34:27;3.20;;;2.70;;
982;SDS011;480;48.124;11.578;2023-07-29T02:36:55;2.40;;;2.20;;
982;SDS011;480;48.124;11.578;2023-07-29T02:39:22;3.43;;;2.57;;
982;SDS011;480;48.124;11.578;2023-07-29T02:41:49;1.90;;;1.80;;
982;SDS011;480;48.124;11.578;2023-07-29T02:44:16;2.50;;;2.00;;
982;SDS011;480;48.124;11.578;2023-07-29T02:46:44;2.30;;;2.10;;
982;SDS011;480;48.124;11.578;2023-07-29T02:49:13;2.53;;;2.33;;
982;SDS011;480;48.124;11.578;2023-07-29T02:51:40;2.40;;;2.10;;
982;SDS011;480;48.124;11.578;2023-07-29T02:54:08;2.40;;;2.20;;
982;SDS011;480;48.124;11.578;2023-07-29T02:56:35;2.40;;;2.13;;
982;SDS011;480;48.124;11.578;2023-07-29T02:59:02;4.37;;;2.13;;
982;SDS011;480;48.124;11.578;2023-07-29T03:01:30;2.80;;;2.50;;
982;SDS011;480;48.124;11.578;2023-07-29T03:03:57;2.53;;;2.27;;
982;SDS011;480;48.124;11.578;2023-07-29T03:06:26;2.40;;;2.20;;
982;SDS011;480;48.124;11.578;2023-07-29T03:08:53;3.53;;;2.70;;
982;SDS011;480;48.124;11.578;2023-07-29T03:11:20;3.20;;;3.00;;
982;SDS011;480;48.124;11.578;2023-07-29T03:13:47;2.00;;;1.90;;
982;SDS011;480;48.124;11.578;2023-07-29T03:16:14;3.50;;;2.87;;
982;SDS011;480;48.124;11.578;2023-07-29T03:18:42;2.67;;;2.47;;
982;SDS011;480;48.124;11.578;2023-07-29T03:21:10;3.00;;;2.47;;
982;SDS011;480;48.124;11.578;2023-07-29T03:23:39;2.77;;;2.57;;
982;SDS011;480;48.124;11.578;2023-07-29T03:26:06;3.20;;;2.57;;
982;SDS011;480;48.124;11.578;2023-07-29T03:28:36;3.77;;;2.70;;
982;SDS011;480;48.124;11.578;2023-07-29T03:31:04;3.20;;;2.47;;
982;SDS011;480;48.124;11.578;2023-07-29T03:33:32;3.47;;;2.50;;
982;SDS011;480;48.124;11.578;2023-07-29T03:35:59;2.90;;;2.70;;
982;SDS011;480;48.124;11.578;2023-07-29T03:38:26;2.07;;;1.97;;
982;SDS011;480;48.124;11.578;2023-07-29T03:40:55;2.43;;;2.23;;
982;SDS011;480;48.124;11.578;2023-07-29T03:43:22;2.30;;;2.10;;
982;SDS011;480;48.124;11.578;2023-07-29T03:45:49;2.80;;;2.60;;
982;SDS011;480;48.124;11.578;2023-07-29T03:48:16;2.27;;;1.90;;
982;SDS011;480;48.124;11.578;2023-07-29T03:50:44;2.40;;;2.20;;
982;SDS011;480;48.124;11.578;2023-07-29T03:53:11;2.43;;;2.33;;
982;SDS011;480;48.124;11.578;2023-07-29T03:55:38;2.43;;;2.23;;
982;SDS011;480;48.124;11.578;2023-07-29T03:58:06;2.30;;;2.10;;
982;SDS011;480;48.124;11.578;2023-07-29T04:00:33;3.43;;;2.37;;
982;SDS011;480;48.124;11.578;2023-07-29T04:03:01;1.80;;;1.70;;
982;SDS011;480;48.124;11.578;2023-07-29T04:05:28;5.37;;;2.30;;
982;SDS011;480;48.124;11.578;2023-07-29T04:07:55;2.57;;;2.37;;
982;SDS011;480;48.124;11.578;2023-07-29T04:10:23;1.80;;;1.70;;
982;SDS011;480;48.124;11.578;2023-07-29T04:12:50;2.50;;;2.30;;
982;SDS011;480;48.124;11.578;2023-07-29T04:15:19;2.80;;;2.37;;
982;SDS011;480;48.124;11.578;2023-07-29T04:17:46;2.83;;;2.43;;
982;SDS011;480;48.124;11.578;2023-07-29T04:20:13;2.90;;;2.23;;
982;SDS011;480;48.124;11.578;2023-07-29T04:22:40;2.10;;;2.00;;
982;SDS011;480;48.124;11.578;2023-07-29T04:25:07;1.83;;;1.73;;
982;SDS011;480;48.124;11.578;2023-07-29T04:27:35;2.70;;;1.80;;
982;SDS011;480;48.124;11.578;2023-07-29T04:30:02;3.40;;;2.37;;
982;SDS011;480;48.124;11.578;2023-07-29T04:32:31;1.93;;;1.83;;
982;SDS011;480;48.124;11.578;2023-07-29T04:34:58;2.00;;;1.90;;
982;SDS011;480;48.124;11.578;2023-07-29T04:37:25;2.07;;;1.97;;
982;SDS011;480;48.124;11.578;2023-07-29T04:39:52;1.90;;;1.80;;
982;SDS011;480;48.124;11.578;2023-07-29T04:42:19;2.10;;;2.00;;
982;SDS011;480;48.124;11.578;2023-07-29T04:44:47;2.90;;;2.20;;
982;SDS011;480;48.124;11.578;2023-07-29T04:47:14;2.10;;;1.80;;
982;SDS011;480;48.124;11.578;2023-07-29T04:49:42;2.00;;;1.90;;
982;SDS011;480;48.124;11.578;2023-07-29T04:52:09;2.50;;;2.30;;
982;SDS011;480;48.124;11.578;2023-07-29T04:54:36;3.17;;;2.23;;
982;SDS011;480;48.124;11.578;2023-07-29T04:57:04;1.93;;;1.60;;
982;SDS011;480;48.124;11.578;2023-07-29T04:59:31;2.40;;;2.20;;
982;SDS011;480;48.124;11.578;2023-07-29T05:01:58;2.20;;;1.97;;
982;SDS011;480;48.124;11.578;2023-07-29T05:04:26;2.70;;;2.27;;
982;SDS011;480;48.124;11.578;2023-07-29T05:06:54;2.77;;;2.17;;
982;SDS011;480;48.124;11.578;2023-07-29T05:09:21;2.17;;;1.83;;
982;SDS011;480;48.124;11.578;2023-07-29T05:11:50;2.17;;;1.97;;
982;SDS011;480;48.124;11.578;2023-07-29T05:14:17;2.73;;;2.20;;
982;SDS011;480;48.124;11.578;2023-07-29T05:16:45;2.20;;;2.00;;
982;SDS011;480;48.124;11.578;2023-07-29T05:19:13;3.20;;;1.83;;
982;SDS011;480;48.124;11.578;2023-07-29T05:21:42;1.73;;;1.63;;
982;SDS011;480;48.124;11.578;2023-07-29T05:24:10;2.33;;;2.13;;
982;SDS011;480;48.124;11.578;2023-07-29T05:26:37;2.63;;;2.23;;
982;SDS011;480;48.124;11.578;2023-07-29T05:29:04;2.20;;;2.00;;
982;SDS011;480;48.124;11.578;2023-07-29T05:31:31;1.60;;;1.50;;
982;SDS011;480;48.124;11.578;2023-07-29T05:33:59;1.60;;;1.50;;
982;SDS011;480;48.124;11.578;2023-07-29T05:36:26;2.17;;;1.97;;
982;SDS011;480;48.124;11.578;2023-07-29T05:38:53;1.73;;;1.33;;
982;SDS011;480;48.124;11.578;2023-07-29T05:41:21;1.80;;;1.70;;
982;SDS011;480;48.124;11.578;2023-07-29T05:43:48;2.20;;;2.03;;
982;SDS011;480;48.124;11.578;2023-07-29T05:46:16;2.30;;;2.03;;
982;SDS011;480;48.124;11.578;2023-07-29T05:48:43;2.03;;;1.80;;
982;SDS011;480;48.124;11.578;2023-07-29T05:51:10;1.60;;;1.50;;
982;SDS011;480;48.124;11.578;2023-07-29T05:53:37;1.67;;;1.57;;
982;SDS011;480;48.124;11.578;2023-07-29T05:56:05;2.30;;;1.43;;
982;SDS011;480;48.124;11.578;2023-07-29T05:58:33;1.30;;;1.17;;
982;SDS011;480;48.124;11.578;2023-07-29T06:01:00;1.73;;;1.63;;
982;SDS011;480;48.124;11.578;2023-07-29T06:03:27;3.27;;;1.70;;
982;SDS011;480;48.124;11.578;2023-07-29T06:05:54;4.53;;;3.30;;
982;SDS011;480;48.124;11.578;2023-07-29T06:08:21;3.53;;;2.03;;
982;SDS011;480;48.124;11.578;2023-07-29T06:10:48;3.10;;;2.10;;
982;SDS011;480;48.124;11.578;2023-07-29T06:13:15;4.40;;;2.40;;
982;SDS011;480;48.124;11.578;2023-07-29T06:15:44;2.10;;;1.90;;
982;SDS011;480;48.124;11.578;2023-07-29T06:18:11;2.13;;;1.50;;
982;SDS011;480;48.124;11.578;2023-07-29T06:20:38;2.33;;;2.13;;
982;SDS011;480;48.124;11.578;2023-07-29T06:23:14;2.00;;;1.40;;
982;SDS011;480;48.124;11.578;2023-07-29T06:25:41;1.70;;;1.57;;
982;SDS011;480;48.124;11.578;2023-07-29T06:28:08;3.10;;;2.80;;
982;SDS011;480;48.124;11.578;2023-07-29T06:30:36;2.40;;;1.70;;
982;SDS011;480;48.124;11.578;2023-07-29T06:33:04;2.50;;;2.20;;
982;SDS011;480;48.124;11.578;2023-07-29T06:35:32;2.00;;;1.80;;
982;SDS011;480;48.124;11.578;2023-07-29T06:37:58;3.47;;;1.67;;
982;SDS011;480;48.124;11.578;2023-07-29T06:40:25;3.93;;;2.30;;
982;SDS011;480;48.124;11.578;2023-07-29T06:42:53;1.67;;;1.53;;
982;SDS011;480;48.124;11.578;2023-07-29T06:45:20;2.30;;;2.10;;
982;SDS011;480;48.124;11.578;2023-07-29T06:47:47;2.60;;;2.40;;
982;SDS011;480;48.124;11.578;2023-07-29T06:50:15;1.90;;;1.80;;
982;SDS011;480;48.124;11.578;2023-07-29T06:52:43;2.60;;;1.63;;
982;SDS011;480;48.124;11.578;2023-07-29T06:55:10;2.30;;;1.80;;
982;SDS011;480;48.124;11.578;2023-07-29T06:57:37;3.40;;;2.90;;
982;SDS011;480;48.124;11.578;2023-07-29T07:00:05;2.10;;;2.00;;
982;SDS011;480;48.124;11.578;2023-07-29T07:02:34;4.03;;;1.77;;
982;SDS011;480;48.124;11.578;2023-07-29T07:05:01;3.10;;;2.50;;
982;SDS011;480;48.124;11.578;2023-07-29T07:07:29;3.50;;;2.07;;
982;SDS011;480;48.124;11.578;2023-07-29T07:09:56;3.37;;;2.10;;
982;SDS011;480;48.124;11.578;2023-07-29T07:12:24;3.17;;;2.20;;
982;SDS011;480;48.124;11.578;2023-07-29T07:14:51;4.00;;;2.87;;
982;SDS011;480;48.124;11.578;2023-07-29T07:17:19;2.13;;;2.00;;
982;SDS011;480;48.124;11.578;2023-07-29T07:19:46;1.73;;;1.63;;
982;SDS011;480;48.124;11.578;2023-07-29T07:22:13;4.27;;;2.50;;
982;SDS011;480;48.124;11.578;2023-07-29T07:24:42;1.70;;;1.60;;
982;SDS011;480;48.124;11.578;2023-07-29T07:27:09;4.00;;;2.70;;
982;SDS011;480;48.124;11.578;2023-07-29T07:29:36;3.53;;;2.30;;
982;SDS011;480;48.124;11.578;2023-07-29T07:32:03;2.83;;;2.60;;
982;SDS011;480;48.124;11.578;2023-07-29T07:34:31;2.77;;;2.53;;
982;SDS011;480;48.124;11.578;2023-07-29T07:37:02;2.57;;;2.37;;
982;SDS011;480;48.124;11.578;2023-07-29T07:39:31;2.67;;;2.47;;
982;SDS011;480;48.124;11.578;2023-07-29T07:42:01;2.40;;;2.20;;
982;SDS011;480;48.124;11.578;2023-07-29T07:44:29;2.67;;;2.47;;
982;SDS011;480;48.124;11.578;2023-07-29T07:47:01;3.63;;;2.90;;
982;SDS011;480;48.124;11.578;2023-07-29T07:49:28;3.20;;;3.00;;
982;SDS011;480;48.124;11.578;2023-07-29T07:51:56;3.80;;;3.37;;
982;SDS011;480;48.124;11.578;2023-07-29T07:54:23;3.87;;;2.90;;
982;SDS011;480;48.124;11.578;2023-07-29T07:56:56;2.60;;;2.27;;
982;SDS011;480;48.124;11.578;2023-07-29T07:59:25;3.80;;;2.93;;
982;SDS011;480;48.124;11.578;2023-07-29T08:01:53;5.07;;;3.20;;
982;SDS011;480;48.124;11.578;2023-07-29T08:04:24;5.80;;;3.20;;
982;SDS011;480;48.124;11.578;2023-07-29T08:06:53;5.60;;;3.33;;
982;SDS011;480;48.124;11.578;2023-07-29T08:09:21;2.80;;;2.57;;
982;SDS011;480;48.124;11.578;2023-07-29T08:11:48;2.53;;;2.37;;
982;SDS011;480;48.124;11.578;2023-07-29T08:14:15;2.70;;;2.50;;
982;SDS011;480;48.124;11.578;2023-07-29T08:16:44;3.70;;;3.23;;
982;SDS011;480;48.124;11.578;2023-07-29T08:19:12;2.83;;;2.60;;
982;SDS011;480;48.124;11.578;2023-07-29T08:24:43;3.50;;;3.20;;
982;SDS011;480;48.124;11.578;2023-07-29T08:27:12;3.10;;;2.90;;
982;SDS011;480;48.124;11.578;2023-07-29T08:29:42;3.30;;;2.50;;
982;SDS011;480;48.124;11.578;2023-07-29T08:32:23;3.87;;;2.70;;
982;SDS011;480;48.124;11.578;2023-07-29T08:34:54;3.50;;;2.93;;
982;SDS011;480;48.124;11.578;2023-07-29T08:37:22;3.07;;;2.87;;
982;SDS011;480;48.124;11.578;2023-07-29T08:39:49;3.53;;;2.70;;
982;SDS011;480;48.124;11.578;2023-07-29T08:42:19;3.00;;;2.80;;
982;SDS011;480;48.124;11.578;2023-07-29T08:44:47;5.00;;;3.67;;
982;SDS011;480;48.124;11.578;2023-07-29T08:47:18;2.30;;;2.10;;
982;SDS011;480;48.124;11.578;2023-07-29T08:49:45;2.53;;;2.20;;
982;SDS011;480;48.124;11.578;2023-07-29T08:52:15;2.73;;;2.53;;
982;SDS011;480;48.124;11.578;2023-07-29T08:54:43;2.60;;;2.40;;
982;SDS011;480;48.124;11.578;2023-07-29T08:57:11;3.10;;;2.90;;
982;SDS011;480;48.124;11.578;2023-07-29T08:59:40;3.27;;;2.80;;
982;SDS011;480;48.124;11.578;2023-07-29T09:02:11;4.93;;;2.93;;
982;SDS011;480;48.124;11.578;2023-07-29T09:04:40;3.10;;;2.10;;
982;SDS011;480;48.124;11.578;2023-07-29T09:07:07;3.53;;;2.53;;
982;SDS011;480;48.124;11.578;2023-07-29T09:09:34;3.20;;;2.90;;
982;SDS011;480;48.124;11.578;2023-07-29T09:12:03;4.63;;;2.80;;
982;SDS011;480;48.124;11.578;2023-07-29T09:14:33;2.47;;;2.27;;
982;SDS011;480;48.124;11.578;2023-07-29T09:17:00;2.60;;;2.40;;
982;SDS011;480;48.124;11.578;2023-07-29T09:19:27;2.87;;;2.67;;
982;SDS011;480;48.124;11.578;2023-07-29T09:22:01;3.13;;;2.93;;
982;SDS011;480;48.124;11.578;2023-07-29T09:24:29;3.00;;;2.70;;
982;SDS011;480;48.124;11.578;2023-07-29T09:26:57;4.37;;;2.20;;
982;SDS011;480;48.124;11.578;2023-07-29T09:29:24;2.43;;;2.23;;
982;SDS011;480;48.124;11.578;2023-07-29T09:32:06;3.60;;;2.60;;
982;SDS011;480;48.124;11.578;2023-07-29T09:34:46;3.10;;;2.80;;
982;SDS011;480;48.124;11.578;2023-07-29T09:37:18;3.67;;;2.70;;
982;SDS011;480;48.124;11.578;2023-07-29T09:39:48;3.10;;;2.63;;
982;SDS011;480;48.124;11.578;2023-07-29T09:42:17;3.17;;;2.87;;
982;SDS011;480;48.124;11.578;2023-07-29T09:44:45;2.50;;;2.20;;
982;SDS011;480;48.124;11.578;2023-07-29T09:47:20;3.13;;;2.70;;
982;SDS011;480;48.124;11.578;2023-07-29T09:49:47;3.80;;;2.73;;
982;SDS011;480;48.124;11.578;2023-07-29T09:52:22;4.73;;;2.90;;
982;SDS011;480;48.124;11.578;2023-07-29T09:54:50;4.30;;;2.80;;
982;SDS011;480;48.124;11.578;2023-07-29T09:57:19;3.80;;;3.13;;
982;SDS011;480;48.124;11.578;2023-07-29T09:59:53;3.07;;;2.77;;
982;SDS011;480;48.124;11.578;2023-07-29T10:02:20;3.03;;;2.80;;
982;SDS011;480;48.124;11.578;2023-07-29T10:04:48;3.27;;;2.97;;
982;SDS011;480;48.124;11.578;2023-07-29T10:07:16;2.43;;;2.00;;
982;SDS011;480;48.124;11.578;2023-07-29T10:09:46;3.30;;;3.10;;
982;SDS011;480;48.124;11.578;2023-07-29T10:12:14;4.63;;;2.60;;
982;SDS011;480;48.124;11.578;2023-07-29T10:14:41;2.50;;;2.30;;
982;SDS011;480;48.124;11.578;2023-07-29T10:17:11;3.43;;;2.40;;
982;SDS011;480;48.124;11.578;2023-07-29T10:19:46;2.43;;;2.13;;
982;SDS011;480;48.124;11.578;2023-07-29T10:22:14;2.73;;;2.53;;
982;SDS011;480;48.124;11.578;2023-07-29T10:24:49;2.70;;;2.50;;
982;SDS011;480;48.124;11.578;2023-07-29T10:27:24;2.83;;;2.40;;
982;SDS011;480;48.124;11.578;2023-07-29T10:29:55;3.10;;;2.90;;
982;SDS011;480;48.124;11.578;2023-07-29T10:32:23;2.80;;;2.50;;
982;SDS011;480;48.124;11.578;2023-07-29T10:34:52;3.27;;;2.93;;
982;SDS011;480;48.124;11.578;2023-07-29T10:37:20;2.70;;;2.50;;
982;SDS011;480;48.124;11.578;2023-07-29T10:39:54;3.60;;;2.70;;
982;SDS011;480;48.124;11.578;2023-07-29T10:42:21;3.40;;;2.77;;
982;SDS011;480;48.124;11.578;2023-07-29T10:44:50;2.77;;;2.57;;
982;SDS011;480;48.124;11.578;2023-07-29T10:47:19;3.00;;;2.80;;
982;SDS011;480;48.124;11.578;2023-07-29T10:49:49;2.60;;;2.40;;
982;SDS011;480;48.124;11.578;2023-07-29T10:52:27;5.00;;;2.90;;
982;SDS011;480;48.124;11.578;2023-07-29T10:54:57;3.27;;;3.00;;
982;SDS011;480;48.124;11.578;2023-07-29T10:57:31;3.40;;;3.13;;
982;SDS011;480;48.124;11.578;2023-07-29T11:00:00;3.20;;;2.90;;
982;SDS011;480;48.124;11.578;2023-07-29T11:02:29;3.13;;;2.53;;
982;SDS011;480;48.124;11.578;2023-07-29T11:04:57;3.03;;;2.80;;
982;SDS011;480;48.124;11.578;2023-07-29T11:07:25;2.87;;;2.67;;
982;SDS011;480;48.124;11.578;2023-07-29T11:09:54;3.37;;;3.07;;
982;SDS011;480;48.124;11.578;2023-07-29T11:12:39;3.00;;;2.80;;
982;SDS011;480;48.124;11.578;2023-07-29T11:17:38;3.37;;;3.10;;
982;SDS011;480;48.124;11.578;2023-07-29T11:20:14;3.40;;;3.10;;
982;SDS011;480;48.124;11.578;2023-07-29T11:22:42;2.40;;;2.10;;
982;SDS011;480;48.124;11.578;2023-07-29T11:25:12;1.97;;;1.60;;
982;SDS011;480;48.124;11.578;2023-07-29T11:27:39;2.47;;;2.27;;
982;SDS011;480;48.124;11.578;2023-07-29T11:30:07;2.10;;;1.90;;
982;SDS011;480;48.124;11.578;2023-07-29T11:32:36;1.30;;;1.20;;
982;SDS011;480;48.124;11.578;2023-07-29T11:35:04;3.83;;;1.97;;
982;SDS011;480;48.124;11.578;2023-07-29T11:37:33;1.80;;;1.70;;
982;SDS011;480;48.124;11.578;2023-07-29T11:40:01;1.97;;;1.73;;
982;SDS011;480;48.124;11.578;2023-07-29T11:42:32;2.27;;;1.90;;
982;SDS011;480;48.124;11.578;2023-07-29T11:45:00;2.83;;;2.37;;
982;SDS011;480;48.124;11.578;2023-07-29T11:47:28;1.93;;;1.83;;
982;SDS011;480;48.124;11.578;2023-07-29T11:49:58;1.83;;;1.63;;
982;SDS011;480;48.124;11.578;2023-07-29T11:52:26;2.53;;;2.17;;
982;SDS011;480;48.124;11.578;2023-07-29T11:54:54;2.43;;;2.23;;
982;SDS011;480;48.124;11.578;2023-07-29T11:57:21;2.30;;;1.90;;
982;SDS011;480;48.124;11.578;2023-07-29T11:59:52;3.17;;;2.33;;
982;SDS011;480;48.124;11.578;2023-07-29T12:02:19;2.40;;;1.77;;
982;SDS011;480;48.124;11.578;2023-07-29T12:04:48;1.93;;;1.83;;
982;SDS011;480;48.124;11.578;2023-07-29T12:07:16;2.20;;;2.00;;
982;SDS011;480;48.124;11.578;2023-07-29T12:09:44;2.10;;;1.97;;
982;SDS011;480;48.124;11.578;2023-07-29T12:12:13;2.30;;;2.10;;
982;SDS011;480;48.124;11.578;2023-07-29T12:14:43;2.85;;;2.15;;
982;SDS011;480;48.124;11.578;2023-07-29T12:17:15;2.60;;;2.40;;
982;SDS011;480;48.124;11.578;2023-07-29T12:19:44;2.20;;;2.00;;
982;SDS011;480;48.124;11.578;2023-07-29T12:22:11;3.17;;;2.27;;
982;SDS011;480;48.124;11.578;2023-07-29T12:24:39;2.87;;;2.67;;
982;SDS011;480;48.124;11.578;2023-07-29T12:27:10;2.10;;;2.00;;
982;SDS011;480;48.124;11.578;2023-07-29T12:29:41;3.63;;;2.73;;
982;SDS011;480;48.124;11.578;2023-07-29T12:32:17;2.50;;;2.30;;
982;SDS011;480;48.124;11.578;2023-07-29T12:34:45;2.43;;;2.23;;
982;SDS011;480;48.124;11.578;2023-07-29T12:37:14;2.80;;;2.60;;
982;SDS011;480;48.124;11.578;2023-07-29T12:39:43;2.70;;;2.50;;
982;SDS011;480;48.124;11.578;2023-07-29T12:42:10;3.33;;;2.83;;
982;SDS011;480;48.124;11.578;2023-07-29T12:44:38;2.63;;;2.43;;
982;SDS011;480;48.124;11.578;2023-07-29T12:47:05;2.83;;;2.63;;
982;SDS011;480;48.124;11.578;2023-07-29T12:52:20;3.20;;;2.60;;
982;SDS011;480;48.124;11.578;2023-07-29T12:54:48;2.70;;;2.50;;
982;SDS011;480;48.124;11.578;2023-07-29T12:57:15;2.50;;;2.30;;
982;SDS011;480;48.124;11.578;2023-07-29T12:59:42;2.77;;;2.40;;
982;SDS011;480;48.124;11.578;2023-07-29T13:02:23;2.37;;;2.13;;
982;SDS011;480;48.124;11.578;2023-07-29T13:04:51;2.30;;;2.00;;
982;SDS011;480;48.124;11.578;2023-07-29T13:07:21;2.43;;;2.23;;
982;SDS011;480;48.124;11.578;2023-07-29T13:09:48;2.77;;;2.57;;
982;SDS011;480;48.124;11.578;2023-07-29T13:12:16;3.40;;;3.10;;
982;SDS011;480;48.124;11.578;2023-07-29T13:14:43;3.03;;;2.60;;
982;SDS011;480;48.124;11.578;2023-07-29T13:17:10;5.10;;;3.50;;
982;SDS011;480;48.124;11.578;2023-07-29T13:19:38;3.93;;;2.90;;
982;SDS011;480;48.124;11.578;2023-07-29T13:22:05;6.73;;;3.80;;
982;SDS011;480;48.124;11.578;2023-07-29T13:24:34;3.80;;;3.50;;
982;SDS011;480;48.124;11.578;2023-07-29T13:27:02;4.03;;;3.37;;
982;SDS011;480;48.124;11.578;2023-07-29T13:29:30;4.00;;;3.60;;
982;SDS011;480;48.124;11.578;2023-07-29T13:31:57;3.57;;;3.27;;
982;SDS011;480;48.124;11.578;2023-07-29T13:34:24;4.37;;;3.83;;
982;SDS011;480;48.124;11.578;2023-07-29T13:36:51;4.27;;;3.87;;
982;SDS011;480;48.124;11.578;2023-07-29T13:39:19;4.10;;;3.67;;
982;SDS011;480;48.124;11.578;2023-07-29T13:41:48;4.83;;;3.20;;
982;SDS011;480;48.124;11.578;2023-07-29T13:44:15;4.33;;;3.93;;
982;SDS011;480;48.124;11.578;2023-07-29T13:46:42;4.37;;;4.07;;
982;SDS011;480;48.124;11.578;2023-07-29T13:49:09;6.30;;;4.27;;
982;SDS011;480;48.124;11.578;2023-07-29T13:51:36;4.43;;;3.30;;
982;SDS011;480;48.124;11.578;2023-07-29T13:54:04;5.97;;;3.47;;
982;SDS011;480;48.124;11.578;2023-07-29T13:56:34;4.60;;;3.87;;
982;SDS011;480;48.124;11.578;2023-07-29T13:59:04;3.80;;;3.50;;
982;SDS011;480;48.124;11.578;2023-07-29T14:01:34;3.60;;;3.20;;
982;SDS011;480;48.124;11.578;2023-07-29T14:04:01;4.10;;;3.53;;
982;SDS011;480;48.124;11.578;2023-07-29T14:06:29;3.20;;;3.00;;
982;SDS011;480;48.124;11.578;2023-07-29T14:08:56;5.97;;;3.30;;
982;SDS011;480;48.124;11.578;2023-07-29T14:11:23;4.37;;;3.90;;
982;SDS011;480;48.124;11.578;2023-07-29T14:13:52;5.83;;;4.20;;
982;SDS011;480;48.124;11.578;2023-07-29T14:16:22;6.73;;;3.80;;
982;SDS011;480;48.124;11.578;2023-07-29T14:18:49;3.10;;;2.77;;
982;SDS011;480;48.124;11.578;2023-07-29T14:21:18;4.87;;;3.40;;
982;SDS011;480;48.124;11.578;2023-07-29T14:23:45;3.67;;;3.37;;
982;SDS011;480;48.124;11.578;2023-07-29T14:26:13;3.20;;;2.83;;
982;SDS011;480;48.124;11.578;2023-07-29T14:28:42;2.60;;;2.43;;
982;SDS011;480;48.124;11.578;2023-07-29T14:31:09;3.20;;;3.00;;
982;SDS011;480;48.124;11.578;2023-07-29T14:33:41;5.50;;;3.37;;
982;SDS011;480;48.124;11.578;2023-07-29T14:36:08;4.00;;;3.57;;
982;SDS011;480;48.124;11.578;2023-07-29T14:38:36;3.87;;;3.53;;
982;SDS011;480;48.124;11.578;2023-07-29T14:41:04;4.53;;;3.10;;
982;SDS011;480;48.124;11.578;2023-07-29T14:43:31;3.23;;;2.93;;
982;SDS011;480;48.124;11.578;2023-07-29T14:45:59;3.43;;;3.13;;
982;SDS011;480;48.124;11.578;2023-07-29T14:48:26;5.03;;;3.43;;
982;SDS011;480;48.124;11.578;2023-07-29T14:50:55;4.80;;;3.70;;
982;SDS011;480;48.124;11.578;2023-07-29T14:53:22;4.27;;;3.33;;
982;SDS011;480;48.124;11.578;2023-07-29T14:55:50;5.50;;;4.37;;
982;SDS011;480;48.124;11.578;2023-07-29T14:58:17;4.47;;;4.07;;
982;SDS011;480;48.124;11.578;2023-07-29T15:00:46;5.77;;;5.17;;
982;SDS011;480;48.124;11.578;2023-07-29T15:03:13;4.27;;;3.33;;
982;SDS011;480;48.124;11.578;2023-07-29T15:05:42;5.47;;;3.50;;
982;SDS011;480;48.124;11.578;2023-07-29T15:08:15;4.60;;;4.20;;
982;SDS011;480;48.124;11.578;2023-07-29T15:10:44;4.97;;;4.47;;
982;SDS011;480;48.124;11.578;2023-07-29T15:13:15;3.97;;;3.57;;
982;SDS011;480;48.124;11.578;2023-07-29T15:15:44;3.83;;;3.53;;
982;SDS011;480;48.124;11.578;2023-07-29T15:18:15;3.60;;;2.97;;
982;SDS011;480;48.124;11.578;2023-07-29T15:20:43;3.80;;;3.03;;
982;SDS011;480;48.124;11.578;2023-07-29T15:23:12;5.23;;;4.53;;
982;SDS011;480;48.124;11.578;2023-07-29T15:25:39;4.20;;;3.80;;
982;SDS011;480;48.124;11.578;2023-07-29T15:28:11;4.10;;;3.70;;
982;SDS011;480;48.124;11.578;2023-07-29T15:30:38;3.80;;;3.50;;
982;SDS011;480;48.124;11.578;2023-07-29T15:33:06;5.20;;;3.80;;
982;SDS011;480;48.124;11.578;2023-07-29T15:35:36;3.47;;;3.10;;
982;SDS011;480;48.124;11.578;2023-07-29T15:38:05;3.63;;;3.33;;
982;SDS011;480;48.124;11.578;2023-07-29T15:40:34;4.00;;;3.33;;
982;SDS011;480;48.124;11.578;2023-07-29T15:43:01;4.23;;;3.83;;
982;SDS011;480;48.124;11.578;2023-07-29T15:45:29;2.90;;;2.70;;
982;SDS011;480;48.124;11.578;2023-07-29T15:47:56;4.37;;;3.60;;